Menominee, MI

4:40 AM CDT on June 25, 2017 (GMT -0500)
Menominee-Marinette Twin County

Weather History for KMNM - January, 2015

Change the Weather History Date:

Thursday, January 29, 2015

  Actual Average Record
Temperature  
Mean Temperature 25 °F -  
Max Temperature 33 °F 27 °F 42 °F (1989)
Min Temperature 17 °F 8 °F -18 °F (1965)
Degree Days  
Heating Degree Days 40    
Moisture  
Dew Point 19 °F    
Average Humidity 70    
Maximum Humidity 93    
Minimum Humidity 50    
Precipitation  
Precipitation 0.00 in - - ()
Sea Level Pressure  
Sea Level Pressure 29.97 in    
Wind  
Wind Speed 9 mph (NNW)    
Max Wind Speed 24 mph    
Max Gust Speed 38 mph    
Visibility 9 miles    
Events      
Averages and records for this station are not official NWS values.
T = Trace of Precipitation, MM = Missing Value Source: NWS Daily Summary

Daily Weather History Graph

Daily Weather History Graph

Search for Another Location

Airport or City:

Trip Planner

Search our weather history database for the weather conditions in past years. The results will help you decide how hot, cold, wet, or windy it might be!

Date:

Astronomy

Jan. 29, 2015 Rise Set
Actual Time 7:14 AM CST 4:53 PM CST
Civil Twilight 6:42 AM CST 5:25 PM CST
Nautical Twilight 6:07 AM CST 6:00 PM CST
Astronomical Twilight 5:32 AM CST 6:35 PM CST
Moon 12:40 PM CST (1/29) 2:46 AM CST (1/29)
Length of Visible Light 10h 42m
Length of Day
9h 39m
Waxing Gibbous, 76% of the Moon is Illuminated
Jan 29
Waxing Gibbous
Feb 3
Full
Feb 11
Last Quarter
Feb 18
New
Feb 25
First Quarter

Hourly Weather History & Observations

Time (CST) Temp. Windchill Dew Point Humidity Pressure Visibility Wind Dir Wind Speed Gust Speed Precip Events Conditions
12:15 AM 32.0 °F 24.2 °F 24.8 °F 75% 29.82 in 10.0 mi South 9.2 mph - N/A   Overcast
12:35 AM 32.0 °F 24.8 °F 24.8 °F 75% 29.81 in 10.0 mi SSW 8.1 mph - N/A   Overcast
12:55 AM 32.0 °F 26.4 °F 24.8 °F 75% 29.81 in 10.0 mi South 5.8 mph - N/A   Overcast
1:15 AM 32.0 °F 26.4 °F 24.8 °F 75% 29.80 in 10.0 mi SSW 5.8 mph - N/A   Overcast
1:35 AM 32.0 °F 26.4 °F 24.8 °F 75% 29.80 in 10.0 mi SSW 5.8 mph - N/A   Overcast
1:55 AM 30.2 °F - 24.8 °F 80% 29.80 in 10.0 mi Calm Calm - N/A   Overcast
2:15 AM 30.2 °F - 24.8 °F 80% 29.80 in 9.0 mi Calm Calm - N/A   Overcast
2:35 AM 30.2 °F 24.3 °F 24.8 °F 80% 29.79 in 7.0 mi WSW 5.8 mph - N/A   Overcast
2:55 AM 30.2 °F 26.7 °F 24.8 °F 80% 29.78 in 8.0 mi WSW 3.5 mph - N/A   Overcast
3:15 AM 30.2 °F 26.7 °F 24.8 °F 80% 29.78 in 8.0 mi West 3.5 mph - N/A   Overcast
3:35 AM 30.2 °F - 24.8 °F 80% 29.77 in 8.0 mi Calm Calm - N/A   Overcast
3:55 AM 30.2 °F - 24.8 °F 80% 29.77 in 7.0 mi Calm Calm - N/A   Overcast
4:15 AM 30.2 °F - 24.8 °F 80% 29.76 in 7.0 mi Calm Calm - N/A   Overcast
4:35 AM 30.2 °F - 24.8 °F 80% 29.76 in 7.0 mi Calm Calm - N/A   Overcast
4:55 AM 30.2 °F 26.7 °F 24.8 °F 80% 29.76 in 6.0 mi NW 3.5 mph - N/A   Overcast
5:15 AM 30.2 °F 25.4 °F 24.8 °F 80% 29.76 in 2.0 mi NNW 4.6 mph - N/A   Overcast
5:35 AM 28.4 °F 24.6 °F 26.6 °F 93% 29.76 in 2.0 mi NNW 3.5 mph - N/A   Overcast
5:55 AM 28.4 °F 22.2 °F 26.6 °F 93% 29.76 in 3.0 mi NNW 5.8 mph - N/A   Overcast
6:15 AM 28.4 °F 21.2 °F 24.8 °F 86% 29.77 in 5.0 mi NW 6.9 mph - N/A   Overcast
6:35 AM 28.4 °F 21.2 °F 24.8 °F 86% 29.78 in 5.0 mi NW 6.9 mph - N/A   Overcast
6:55 AM 28.4 °F 21.2 °F 24.8 °F 86% 29.79 in 5.0 mi NNW 6.9 mph - N/A   Overcast
7:15 AM 28.4 °F 21.2 °F 24.8 °F 86% 29.79 in 5.0 mi NNW 6.9 mph - N/A   Overcast
7:35 AM 28.4 °F 19.1 °F 24.8 °F 86% 29.80 in 6.0 mi NNW 10.4 mph 16.1 mph N/A   Overcast
7:55 AM 28.4 °F 20.4 °F 24.8 °F 86% 29.81 in 7.0 mi NNW 8.1 mph - N/A   Overcast
8:15 AM 30.2 °F 22.6 °F 24.8 °F 80% 29.82 in 7.0 mi NNW 8.1 mph - N/A   Overcast
8:35 AM 30.2 °F 21.3 °F 24.8 °F 80% 29.83 in 7.0 mi NNW 10.4 mph - N/A   Overcast
8:55 AM 30.2 °F 21.9 °F 24.8 °F 80% 29.83 in 7.0 mi NNW 9.2 mph - N/A   Overcast
9:15 AM 30.2 °F 20.8 °F 26.6 °F 86% 29.84 in 8.0 mi NNW 11.5 mph 17.3 mph N/A   Overcast
9:35 AM 30.2 °F 20.2 °F 26.6 °F 86% 29.85 in 8.0 mi NNW 12.7 mph - N/A   Overcast
9:55 AM 30.2 °F 21.9 °F 26.6 °F 86% 29.86 in 9.0 mi NNW 9.2 mph 17.3 mph N/A   Overcast
10:15 AM 32.0 °F 23.0 °F 24.8 °F 75% 29.87 in 10.0 mi NNW 11.5 mph 20.7 mph N/A   Overcast
10:35 AM 32.0 °F 22.5 °F 24.8 °F 75% 29.88 in 10.0 mi NNW 12.7 mph 20.7 mph N/A   Overcast
10:55 AM 32.0 °F 21.2 °F 24.8 °F 75% 29.88 in 10.0 mi North 16.1 mph 24.2 mph N/A   Overcast
11:15 AM 32.0 °F 21.2 °F 23.0 °F 69% 29.89 in 10.0 mi NNW 16.1 mph 23.0 mph N/A   Overcast
11:35 AM 32.0 °F 20.8 °F 23.0 °F 69% 29.89 in 10.0 mi NNW 17.3 mph 26.5 mph N/A   Overcast
11:55 AM 32.0 °F 23.6 °F 23.0 °F 69% 29.89 in 10.0 mi NNW 10.4 mph 23.0 mph N/A   Overcast
12:15 PM 33.8 °F 23.2 °F 23.0 °F 65% 29.89 in 10.0 mi North 17.3 mph 21.9 mph N/A   Overcast
12:35 PM 33.8 °F 26.4 °F 23.0 °F 65% 29.89 in 10.0 mi NNW 9.2 mph 23.0 mph N/A   Overcast
12:55 PM 33.8 °F 24.8 °F 23.0 °F 65% 29.89 in 10.0 mi North 12.7 mph 23.0 mph N/A   Overcast
1:15 PM 33.8 °F 25.8 °F 23.0 °F 65% 29.89 in 10.0 mi NNW 10.4 mph 17.3 mph N/A   Overcast
1:35 PM 33.8 °F 22.8 °F 24.8 °F 70% 29.89 in 10.0 mi NNW 18.4 mph 31.1 mph N/A   Overcast
1:55 PM 33.8 °F 22.8 °F 23.0 °F 65% 29.90 in 10.0 mi NNW 18.4 mph 24.2 mph N/A   Overcast
2:15 PM 33.8 °F 22.5 °F 21.2 °F 60% 29.92 in 10.0 mi NNW 19.6 mph 28.8 mph N/A   Overcast
2:35 PM 33.8 °F 22.5 °F 19.4 °F 56% 29.93 in 10.0 mi NNW 19.6 mph 26.5 mph N/A   Overcast
2:55 PM 32.0 °F 20.1 °F 19.4 °F 60% 29.96 in 10.0 mi NNW 19.6 mph 29.9 mph N/A   Overcast
3:15 PM 32.0 °F 20.1 °F 17.6 °F 55% 29.97 in 10.0 mi North 19.6 mph 27.6 mph N/A   Overcast
3:35 PM 30.2 °F 19.3 °F 17.6 °F 60% 30.00 in 10.0 mi NNW 15.0 mph 20.7 mph N/A   Overcast
3:55 PM 30.2 °F 17.8 °F 17.6 °F 60% 30.02 in 10.0 mi North 19.6 mph 27.6 mph N/A   Overcast
4:15 PM 28.4 °F 16.6 °F 17.6 °F 64% 30.04 in 10.0 mi NNW 16.1 mph 31.1 mph N/A   Overcast
4:35 PM 28.4 °F 17.5 °F 17.6 °F 64% 30.06 in 10.0 mi North 13.8 mph 26.5 mph N/A   Overcast
4:55 PM 28.4 °F 15.8 °F 15.8 °F 59% 30.08 in 10.0 mi North 18.4 mph 29.9 mph N/A   Overcast
5:15 PM 26.6 °F 13.8 °F 12.2 °F 55% 30.10 in 10.0 mi NNW 17.3 mph 27.6 mph N/A   Overcast
5:35 PM 26.6 °F 12.4 °F 10.4 °F 51% 30.13 in 10.0 mi NNW 21.9 mph 38.0 mph N/A   Mostly Cloudy
5:55 PM 24.8 °F 11.9 °F 8.6 °F 50% 30.15 in 10.0 mi North 16.1 mph 32.2 mph N/A   Mostly Cloudy
6:15 PM 23.0 °F 11.1 °F 8.6 °F 54% 30.17 in 10.0 mi North 12.7 mph 20.7 mph N/A   Partly Cloudy
6:35 PM 23.0 °F 6.9 °F 10.4 °F 59% 30.19 in 10.0 mi NNW 24.2 mph 28.8 mph N/A   Mostly Cloudy
6:55 PM 21.2 °F 7.8 °F 6.8 °F 54% 30.21 in 10.0 mi North 15.0 mph 27.6 mph N/A   Mostly Cloudy
7:15 PM 21.2 °F 7.8 °F 8.6 °F 58% 30.22 in 10.0 mi North 15.0 mph 26.5 mph N/A   Partly Cloudy
7:35 PM 21.2 °F 8.3 °F 8.6 °F 58% 30.23 in 10.0 mi North 13.8 mph 24.2 mph N/A   Clear
7:55 PM 21.2 °F 10.1 °F 8.6 °F 58% 30.24 in 10.0 mi North 10.4 mph - N/A   Clear
8:15 PM 19.4 °F 5.0 °F 8.6 °F 63% 30.26 in 10.0 mi North 16.1 mph 20.7 mph N/A   Clear
8:35 PM 19.4 °F 7.9 °F 8.6 °F 63% 30.27 in 10.0 mi North 10.4 mph 16.1 mph N/A   Partly Cloudy
8:55 PM 19.4 °F 7.9 °F 8.6 °F 63% 30.28 in 10.0 mi North 10.4 mph - N/A   Clear
9:15 PM 19.4 °F 10.4 °F 8.6 °F 63% 30.29 in 10.0 mi North 6.9 mph - N/A   Clear
9:35 PM 19.4 °F 7.9 °F 8.6 °F 63% 30.30 in 10.0 mi North 10.4 mph - N/A   Partly Cloudy
9:55 PM 19.4 °F 6.6 °F 8.6 °F 63% 30.31 in 10.0 mi North 12.7 mph 20.7 mph N/A   Partly Cloudy
10:15 PM 17.6 °F 6.4 °F 6.8 °F 63% 30.32 in 10.0 mi North 9.2 mph 18.4 mph N/A   Clear
10:35 PM 17.6 °F 5.0 °F 6.8 °F 63% 30.33 in 10.0 mi North 11.5 mph - N/A   Clear
10:55 PM 17.6 °F 5.7 °F 5.0 °F 58% 30.34 in 10.0 mi North 10.4 mph - N/A   Mostly Cloudy
11:15 PM 17.6 °F 5.7 °F 6.8 °F 63% 30.35 in 10.0 mi North 10.4 mph - N/A   Overcast
11:35 PM 17.6 °F 4.3 °F 6.8 °F 63% 30.35 in 10.0 mi North 12.7 mph 17.3 mph N/A   Overcast
11:55 PM 17.6 °F 4.3 °F 6.8 °F 63% 30.36 in 10.0 mi North 12.7 mph - N/A   Overcast